Time;durP1;ratioP1;P1;durP2;ratioP2;P2;SDS_P1;SDS_P2;PMS_P1;PMS_P2;Temp;Humidity;BMP_temperature;BMP_pressure;BME280_temperature;BME280_humidity;BME280_pressure;Samples;Min_cycle;Max_cycle;Signal;HPM_P1;HPM_P2
2024/01/28 00:01:56;;;;;;;14.40;8.23;;;;;;;2.54;100.00;103194.44;5258967;28;20024;-79
2024/01/28 00:04:27;;;;;;;14.68;7.88;;;;;;;2.57;100.00;103193.50;5260539;28;20322;-80
2024/01/28 00:06:59;;;;;;;20.13;8.75;;;;;;;2.60;100.00;103188.31;5260667;28;20079;-80
2024/01/28 00:09:31;;;;;;;13.48;7.28;;;;;;;2.62;100.00;103182.25;5261467;28;20032;-80
2024/01/28 00:12:03;;;;;;;17.75;8.30;;;;;;;2.54;100.00;103184.09;5257818;28;20381;-80
2024/01/28 00:14:35;;;;;;;16.60;8.70;;;;;;;2.52;100.00;103178.06;5261068;28;20473;-79
2024/01/28 00:17:08;;;;;;;14.25;7.72;;;;;;;2.43;100.00;103158.34;5254901;28;20203;-80
2024/01/28 00:19:40;;;;;;;15.23;8.27;;;;;;;2.50;100.00;103172.06;5256705;28;20055;-80
2024/01/28 00:22:12;;;;;;;17.63;8.15;;;;;;;2.46;100.00;103169.53;5253558;28;20032;-80
2024/01/28 00:24:44;;;;;;;13.23;7.97;;;;;;;2.43;100.00;103170.44;5250060;28;20029;-80
2024/01/28 00:27:16;;;;;;;12.15;8.00;;;;;;;2.43;100.00;103162.66;5255992;28;20486;-80
2024/01/28 00:29:48;;;;;;;14.60;7.95;;;;;;;2.43;100.00;103154.91;5258069;28;20051;-80
2024/01/28 00:32:20;;;;;;;15.32;7.68;;;;;;;2.46;100.00;103152.25;5265897;28;20029;-81
2024/01/28 00:34:52;;;;;;;15.55;7.78;;;;;;;2.38;100.00;103143.75;5261320;28;20024;-80
2024/01/28 00:37:24;;;;;;;13.25;7.43;;;;;;;2.42;100.00;103161.81;5260965;28;20029;-80
2024/01/28 00:39:56;;;;;;;12.90;7.22;;;;;;;2.42;100.00;103167.00;5262863;28;20501;-81
2024/01/28 00:42:27;;;;;;;12.65;6.70;;;;;;;2.43;100.00;103158.34;5262903;28;20049;-80
2024/01/28 00:45:02;;;;;;;12.02;7.25;;;;;;;2.36;100.00;103158.47;5260138;28;21227;-80
2024/01/28 00:47:33;;;;;;;12.18;6.80;;;;;;;2.35;100.00;103152.44;5261209;28;20032;-80
2024/01/28 00:50:06;;;;;;;16.35;7.00;;;;;;;2.36;100.00;103148.09;5260884;28;20017;-80
2024/01/28 00:52:38;;;;;;;16.17;7.82;;;;;;;2.34;100.00;103142.09;5262474;28;20055;-81
2024/01/28 00:55:10;;;;;;;14.90;6.57;;;;;;;2.33;100.00;103136.06;5260878;28;20033;-81
2024/01/28 00:57:42;;;;;;;15.50;6.35;;;;;;;2.31;100.00;103134.34;5257190;28;20197;-80
2024/01/28 01:00:15;;;;;;;15.85;7.18;;;;;;;2.37;100.00;103132.56;5261540;28;20028;-80
2024/01/28 01:02:46;;;;;;;14.48;5.95;;;;;;;2.40;100.00;103126.50;5261724;28;20032;-80
2024/01/28 01:05:18;;;;;;;13.77;6.35;;;;;;;2.41;100.00;103123.88;5266194;28;20056;-80
2024/01/28 01:07:50;;;;;;;13.18;6.45;;;;;;;2.39;100.00;103129.97;5263395;28;20029;-81
2024/01/28 01:10:25;;;;;;;13.88;7.03;;;;;;;2.40;100.00;103123.91;5267403;28;20036;-80
2024/01/28 01:12:57;;;;;;;13.70;6.90;;;;;;;2.39;100.00;103120.47;5259633;28;20394;-80
2024/01/28 01:15:32;;;;;;;14.48;6.25;;;;;;;2.34;100.00;103121.38;5262666;28;20032;-80
2024/01/28 01:18:04;;;;;;;11.07;7.13;;;;;;;2.36;100.00;103114.47;5257249;28;20024;-80
2024/01/28 01:20:36;;;;;;;13.47;7.03;;;;;;;2.35;100.00;103121.38;5257210;28;20029;-80
2024/01/28 01:23:09;;;;;;;11.77;6.88;;;;;;;2.29;100.00;103112.84;5266094;28;20048;-80
2024/01/28 01:25:40;;;;;;;9.50;6.55;;;;;;;2.29;100.00;103120.59;5260100;28;20501;-80
2024/01/28 01:28:12;;;;;;;12.88;7.30;;;;;;;2.31;100.00;103105.91;5256389;28;20094;-80
2024/01/28 01:30:44;;;;;;;11.93;6.68;;;;;;;2.32;100.00;103105.91;5254942;28;20029;-80
2024/01/28 01:33:16;;;;;;;15.48;7.40;;;;;;;2.34;100.00;103106.72;5254165;28;20036;-80
2024/01/28 01:35:48;;;;;;;12.80;6.15;;;;;;;2.34;100.00;103106.72;5258823;28;20032;-80
2024/01/28 01:38:21;;;;;;;17.30;7.28;;;;;;;2.35;100.00;103107.56;5256396;28;20039;-80
2024/01/28 01:40:52;;;;;;;15.60;6.47;;;;;;;2.37;100.00;103113.59;5261397;28;20024;-80
2024/01/28 01:43:24;;;;;;;11.52;6.35;;;;;;;2.26;100.00;103110.31;5259092;28;20525;-79
2024/01/28 01:45:57;;;;;;;12.35;6.90;;;;;;;2.31;100.00;103109.38;5257704;28;20025;-80
2024/01/28 01:48:29;;;;;;;11.40;6.70;;;;;;;2.35;100.00;103107.56;5257632;28;20036;-80
2024/01/28 01:51:01;;;;;;;13.80;6.03;;;;;;;2.30;100.00;103109.38;5258699;28;20196;-80
2024/01/28 01:53:35;;;;;;;15.55;7.28;;;;;;;2.31;100.00;103111.97;5257236;28;20040;-79
2024/01/28 01:56:07;;;;;;;12.18;6.70;;;;;;;2.19;100.00;103112.97;5256941;28;20037;-80
2024/01/28 01:58:39;;;;;;;11.35;6.75;;;;;;;2.12;100.00;103116.53;5259027;28;20033;-80
2024/01/28 02:01:16;;;;;;;12.18;6.47;;;;;;;1.94;100.00;103121.91;5256911;28;20059;-80
2024/01/28 02:03:48;;;;;;;10.52;6.50;;;;;;;1.99;100.00;103124.44;5254883;28;20044;-80
2024/01/28 02:06:20;;;;;;;12.93;6.05;;;;;;;1.90;100.00;103109.91;5258938;28;20032;-80
2024/01/28 02:08:52;;;;;;;12.82;6.90;;;;;;;1.90;100.00;103113.34;5258591;28;20032;-80
2024/01/28 02:11:24;;;;;;;10.52;6.72;;;;;;;1.79;100.00;103106.59;5251884;28;20033;-80
2024/01/28 02:13:56;;;;;;;12.65;6.78;;;;;;;1.71;100.00;103104.09;5256444;28;20028;-80
2024/01/28 02:16:28;;;;;;;14.50;6.90;;;;;;;1.65;100.00;103092.09;5249373;28;20048;-80
2024/01/28 02:19:00;;;;;;;13.57;7.72;;;;;;;1.68;100.00;103099.81;5256916;28;20478;-80
2024/01/28 02:21:32;;;;;;;14.57;7.30;;;;;;;1.66;100.00;103096.38;5255365;28;20184;-80
2024/01/28 02:24:04;;;;;;;12.35;6.78;;;;;;;1.62;100.00;103086.09;5254300;28;20059;-80
2024/01/28 02:26:36;;;;;;;9.52;6.32;;;;;;;1.63;100.00;103093.84;5257730;28;20028;-80
2024/01/28 02:29:08;;;;;;;12.10;6.70;;;;;;;1.59;100.00;103081.84;5251908;28;20037;-80
2024/01/28 02:31:40;;;;;;;14.07;6.93;;;;;;;1.58;100.00;103077.53;5259651;28;20039;-80
2024/01/28 02:34:11;;;;;;;11.13;6.88;;;;;;;1.64;100.00;103076.63;5254840;28;20028;-80
2024/01/28 02:36:43;;;;;;;12.38;6.57;;;;;;;1.62;100.00;103070.59;5250672;28;20524;-80
2024/01/28 02:39:15;;;;;;;13.45;6.80;;;;;;;1.60;100.00;103060.28;5254965;28;20066;-80
2024/01/28 02:41:47;;;;;;;15.18;6.88;;;;;;;1.62;100.00;103057.69;5258028;28;20036;-80
2024/01/28 02:44:19;;;;;;;14.35;7.28;;;;;;;1.58;100.00;103062.03;5257387;28;20032;-80
2024/01/28 02:46:51;;;;;;;13.95;6.93;;;;;;;1.60;100.00;103044.78;5253016;28;20033;-80
2024/01/28 02:49:23;;;;;;;14.45;7.22;;;;;;;1.55;100.00;103056.88;5256922;28;20496;-80
2024/01/28 02:51:55;;;;;;;12.00;7.40;;;;;;;1.56;100.00;103056.03;5263877;28;20152;-80
2024/01/28 02:54:27;;;;;;;16.20;6.47;;;;;;;1.49;100.00;103056.97;5264257;28;20028;-80
2024/01/28 02:56:59;;;;;;;11.35;6.38;;;;;;;1.47;100.00;103053.53;5261877;28;20043;-80
2024/01/28 02:59:31;;;;;;;13.23;6.72;;;;;;;1.37;100.00;103039.03;5258503;28;20972;-80
2024/01/28 03:02:03;;;;;;;12.00;6.45;;;;;;;1.43;100.00;103057.03;5251853;28;20056;-80
2024/01/28 03:04:39;;;;;;;11.45;6.55;;;;;;;1.44;100.00;103056.19;5261185;28;20033;-80
2024/01/28 03:07:11;;;;;;;10.35;6.35;;;;;;;1.34;100.00;103046.81;5256102;28;20042;-80
2024/01/28 03:09:43;;;;;;;13.00;7.22;;;;;;;1.31;100.00;103049.44;5254402;28;20040;-80
2024/01/28 03:12:15;;;;;;;12.57;7.47;;;;;;;1.23;100.00;103035.75;5259668;28;20028;-80
2024/01/28 03:14:47;;;;;;;12.35;6.50;;;;;;;1.20;100.00;103034.03;5259668;28;20028;-80
2024/01/28 03:17:19;;;;;;;10.27;6.10;;;;;;;1.20;100.00;103031.47;5255202;28;20442;-80
2024/01/28 03:19:51;;;;;;;13.70;7.05;;;;;;;1.25;100.00;103031.41;5265516;28;20051;-80
2024/01/28 03:22:23;;;;;;;11.30;6.32;;;;;;;1.24;100.00;103027.97;5258434;28;20024;-80
2024/01/28 03:24:55;;;;;;;11.57;6.35;;;;;;;1.25;100.00;103034.00;5253732;28;20043;-80
2024/01/28 03:27:26;;;;;;;12.38;6.78;;;;;;;1.17;100.00;103022.00;5255578;28;20462;-80
2024/01/28 03:29:58;;;;;;;13.55;6.40;;;;;;;1.20;100.00;103032.31;5261405;28;20075;-80
2024/01/28 03:32:31;;;;;;;13.73;6.38;;;;;;;1.15;100.00;103033.25;5259711;28;20024;-80
2024/01/28 03:35:04;;;;;;;20.83;6.75;;;;;;;1.17;100.00;103023.75;5261039;28;20025;-80
2024/01/28 03:37:36;;;;;;;9.73;6.17;;;;;;;1.15;100.00;103034.09;5259293;28;20039;-80
2024/01/28 03:40:09;;;;;;;10.52;6.20;;;;;;;1.11;100.00;103031.56;5257424;28;20033;-80
2024/01/28 03:42:41;;;;;;;9.75;5.82;;;;;;;1.09;100.00;103022.97;5261740;28;20055;-80
2024/01/28 03:45:13;;;;;;;13.18;6.15;;;;;;;1.04;100.00;103017.00;5253865;28;20020;-80
2024/01/28 03:47:45;;;;;;;13.63;6.35;;;;;;;1.00;100.00;103021.34;5261363;28;20371;-80
2024/01/28 03:50:19;;;;;;;11.05;6.07;;;;;;;0.97;100.00;103014.47;5259433;28;20033;-80
2024/01/28 03:52:51;;;;;;;10.15;6.10;;;;;;;0.95;100.00;103005.06;5254434;28;20045;-80
2024/01/28 03:55:23;;;;;;;10.82;6.20;;;;;;;1.03;100.00;103017.91;5251113;28;20028;-80
2024/01/28 03:57:55;;;;;;;9.23;5.20;;;;;;;1.00;100.00;103013.59;5251900;28;20047;-80
2024/01/28 04:00:30;;;;;;;9.32;5.65;;;;;;;1.01;100.00;103011.88;5262911;28;20031;-80
2024/01/28 04:03:02;;;;;;;13.10;6.15;;;;;;;0.99;100.00;103006.75;5258463;28;20047;-80
2024/01/28 04:05:34;;;;;;;17.90;5.70;;;;;;;1.15;100.00;103022.91;5252374;28;20033;-80
2024/01/28 04:08:09;;;;;;;10.90;6.32;;;;;;;1.25;100.00;103027.13;5247368;28;20043;-80
2024/01/28 04:10:42;;;;;;;10.85;6.00;;;;;;;1.21;100.00;103025.41;5255080;28;20478;-80
2024/01/28 04:13:14;;;;;;;7.60;5.32;;;;;;;1.26;100.00;103026.25;5259696;28;20028;-80
2024/01/28 04:15:46;;;;;;;12.27;5.72;;;;;;;1.23;100.00;103026.28;5254681;28;20036;-80
2024/01/28 04:18:18;;;;;;;12.25;5.53;;;;;;;1.23;100.00;103017.69;5259362;28;20036;-80
2024/01/28 04:20:50;;;;;;;12.93;5.75;;;;;;;1.13;100.00;103011.75;5255856;28;20512;-80
2024/01/28 04:23:22;;;;;;;12.10;6.32;;;;;;;1.14;100.00;103016.91;5260874;28;20585;-80
2024/01/28 04:25:54;;;;;;;9.90;5.65;;;;;;;1.06;100.00;102995.50;5254820;28;20039;-80
2024/01/28 04:28:26;;;;;;;11.32;5.40;;;;;;;1.14;100.00;103009.16;5251613;28;20037;-80
2024/01/28 04:31:01;;;;;;;10.43;5.18;;;;;;;1.09;100.00;102985.09;5256934;28;20039;-80
2024/01/28 04:33:32;;;;;;;12.00;5.47;;;;;;;1.08;100.00;102987.72;5253560;28;20616;-80
2024/01/28 04:36:05;;;;;;;10.50;5.75;;;;;;;1.09;100.00;102987.69;5259452;28;20040;-80
2024/01/28 04:38:37;;;;;;;15.35;5.72;;;;;;;1.18;100.00;102984.16;5252612;28;20033;-80
2024/01/28 04:41:09;;;;;;;11.85;5.38;;;;;;;1.20;100.00;102979.81;5268818;28;20041;-80
2024/01/28 04:43:41;;;;;;;9.93;5.75;;;;;;;1.06;100.00;102959.34;5257393;28;20461;-80
2024/01/28 04:46:16;;;;;;;8.88;5.20;;;;;;;1.23;100.00;102979.78;5251692;28;20031;-80
2024/01/28 04:48:48;;;;;;;11.25;5.43;;;;;;;1.27;100.00;102978.03;5256767;28;20647;-80
2024/01/28 04:51:20;;;;;;;8.07;4.55;;;;;;;1.31;100.00;102979.72;5256538;28;20063;-80
2024/01/28 04:53:52;;;;;;;9.18;4.50;;;;;;;1.29;100.00;102961.66;5262011;28;20023;-81
2024/01/28 04:56:23;;;;;;;10.48;4.80;;;;;;;1.36;100.00;102962.41;5250300;28;20033;-80
2024/01/28 04:58:55;;;;;;;9.77;4.65;;;;;;;1.37;100.00;102969.31;5256427;28;20051;-80
2024/01/28 05:01:27;;;;;;;8.73;4.60;;;;;;;1.43;100.00;102967.50;5255598;28;20031;-80
2024/01/28 05:04:04;;;;;;;14.98;4.47;;;;;;;1.40;100.00;102964.97;5259684;28;20405;-80
2024/01/28 05:06:36;;;;;;;8.52;4.68;;;;;;;1.44;100.00;102965.78;5262241;28;20039;-80
2024/01/28 05:09:08;;;;;;;10.13;5.82;;;;;;;1.43;100.00;102967.50;5255111;28;20028;-80
2024/01/28 05:11:40;;;;;;;7.93;4.68;;;;;;;1.44;100.00;102969.22;5261078;28;20029;-80
2024/01/28 05:14:12;;;;;;;10.57;4.45;;;;;;;1.38;100.00;102971.03;5251515;28;20050;-80
2024/01/28 05:16:47;;;;;;;12.43;4.88;;;;;;;1.32;100.00;102956.44;5253330;28;20479;-80
2024/01/28 05:19:19;;;;;;;8.38;4.40;;;;;;;1.46;100.00;102966.59;5249859;28;20029;-80
2024/01/28 05:21:51;;;;;;;13.63;4.63;;;;;;;1.45;100.00;102958.00;5254515;28;20031;-80
2024/01/28 05:24:22;;;;;;;11.98;4.82;;;;;;;1.45;100.00;102959.75;5257732;28;20035;-81
2024/01/28 05:26:54;;;;;;;12.38;4.20;;;;;;;1.36;100.00;102955.53;5260549;28;20760;-81
2024/01/28 05:29:26;;;;;;;10.80;5.00;;;;;;;1.32;100.00;102958.16;5256580;28;20134;-81
2024/01/28 05:31:58;;;;;;;8.35;4.20;;;;;;;1.29;100.00;102953.91;5258005;28;20031;-81
2024/01/28 05:34:30;;;;;;;9.10;4.72;;;;;;;1.21;100.00;102941.09;5261588;28;20024;-81
2024/01/28 05:37:02;;;;;;;11.40;4.70;;;;;;;1.15;100.00;102936.00;5258736;28;20378;-81
2024/01/28 05:39:35;;;;;;;9.80;4.22;;;;;;;1.18;100.00;102933.38;5263626;28;20382;-81
2024/01/28 05:42:07;;;;;;;9.57;4.30;;;;;;;1.25;100.00;102928.13;5257850;28;20044;-81
2024/01/28 05:44:39;;;;;;;9.70;4.97;;;;;;;1.29;100.00;102922.03;5258325;28;20044;-81
2024/01/28 05:47:11;;;;;;;10.68;5.10;;;;;;;1.34;100.00;102925.44;5256005;28;20086;-81
2024/01/28 05:49:43;;;;;;;10.63;5.40;;;;;;;1.36;100.00;102921.94;5260311;28;20040;-81
2024/01/28 05:52:15;;;;;;;10.93;5.07;;;;;;;1.36;100.00;102908.19;5257966;28;20063;-81
2024/01/28 05:54:47;;;;;;;10.63;5.45;;;;;;;1.39;100.00;102918.47;5255808;28;20021;-81
2024/01/28 05:57:19;;;;;;;9.40;5.32;;;;;;;1.39;100.00;102916.75;5261646;28;20537;-81
2024/01/28 05:59:50;;;;;;;9.93;5.43;;;;;;;1.42;100.00;102908.13;5256355;28;20033;-82
2024/01/28 06:02:23;;;;;;;9.80;5.20;;;;;;;1.41;100.00;102904.69;5262650;28;20033;-81
2024/01/28 06:04:55;;;;;;;9.50;5.43;;;;;;;1.40;100.00;102896.94;5257749;28;20028;-81
2024/01/28 06:07:26;;;;;;;13.45;5.50;;;;;;;1.44;100.00;102902.06;5259848;28;20036;-81
2024/01/28 06:09:58;;;;;;;11.60;5.60;;;;;;;1.45;100.00;102900.34;5253503;28;20119;-81
2024/01/28 06:12:30;;;;;;;11.95;6.28;;;;;;;1.48;100.00;102895.13;5255535;28;20039;-81
2024/01/28 06:15:07;;;;;;;12.98;5.10;;;;;;;1.49;100.00;102885.66;5258455;28;20029;-82
2024/01/28 06:17:39;;;;;;;8.77;5.18;;;;;;;1.47;100.00;102888.22;5250480;28;20032;-82
2024/01/28 06:20:11;;;;;;;13.35;5.18;;;;;;;1.48;100.00;102882.22;5253096;28;20028;-82
2024/01/28 06:22:43;;;;;;;11.02;4.40;;;;;;;1.51;100.00;102886.47;5257969;28;20043;-82
2024/01/28 06:25:15;;;;;;;7.25;4.72;;;;;;;1.50;100.00;102887.34;5253920;28;20029;-81
2024/01/28 06:27:47;;;;;;;13.90;4.57;;;;;;;1.50;100.00;102889.94;5263989;28;20036;-81
2024/01/28 06:30:19;;;;;;;11.32;4.95;;;;;;;1.49;100.00;102885.66;5254044;28;20051;-81
2024/01/28 06:32:51;;;;;;;11.45;4.88;;;;;;;1.51;100.00;102889.91;5261520;28;20040;-81
2024/01/28 06:35:23;;;;;;;9.02;4.80;;;;;;;1.47;100.00;102883.06;5260997;28;20025;-81
2024/01/28 06:37:56;;;;;;;11.30;4.75;;;;;;;1.48;100.00;102889.97;5257718;28;20029;-80
2024/01/28 06:40:27;;;;;;;8.83;4.77;;;;;;;1.38;100.00;102870.31;5268806;28;20036;-81
2024/01/28 06:42:59;;;;;;;12.32;5.30;;;;;;;1.38;100.00;102867.72;5262254;28;20043;-81
2024/01/28 06:45:31;;;;;;;9.18;4.65;;;;;;;1.32;100.00;102867.78;5260796;28;20041;-81
2024/01/28 06:48:04;;;;;;;9.75;4.75;;;;;;;1.29;100.00;102875.56;5257034;28;20029;-81
2024/01/28 06:50:36;;;;;;;8.37;4.20;;;;;;;1.30;100.00;102875.56;5266206;28;20044;-81
2024/01/28 06:53:08;;;;;;;12.38;4.88;;;;;;;1.25;100.00;102868.75;5265834;28;20282;-81
2024/01/28 06:55:39;;;;;;;7.47;4.32;;;;;;;1.25;100.00;102877.38;5257430;28;20115;-81
2024/01/28 06:58:11;;;;;;;9.30;4.65;;;;;;;1.16;100.00;102870.56;5259983;28;20583;-81
2024/01/28 07:00:44;;;;;;;9.25;4.55;;;;;;;1.16;100.00;102870.56;5264086;28;20033;-81
2024/01/28 07:03:17;;;;;;;11.30;5.50;;;;;;;1.13;100.00;102864.59;5261384;28;20040;-81
2024/01/28 07:05:49;;;;;;;;;;;;;;;1.69;100.00;102862.94;5256623;28;20032;-81
2024/01/28 07:08:21;;;;;;;8.73;4.10;;;;;;;1.18;100.00;102880.91;5260094;28;19928;-81
2024/01/28 07:10:53;;;;;;;8.38;4.80;;;;;;;1.10;100.00;102883.56;5253182;28;20031;-81
2024/01/28 07:13:24;;;;;;;12.35;5.00;;;;;;;1.07;100.00;102875.88;5263618;28;20037;-81
2024/01/28 07:15:56;;;;;;;8.48;4.50;;;;;;;1.10;100.00;102878.41;5258867;28;20020;-80
2024/01/28 07:18:29;;;;;;;7.95;4.30;;;;;;;1.15;100.00;102868.88;5239625;28;20128;-80
2024/01/28 07:21:02;;;;;;;10.40;5.00;;;;;;;1.20;100.00;102879.13;5246871;28;20036;-80
2024/01/28 07:23:34;;;;;;;8.98;4.97;;;;;;;1.22;100.00;102874.81;5249636;28;20034;-80
2024/01/28 07:26:08;;;;;;;8.07;4.35;;;;;;;1.20;100.00;102866.22;5249642;28;20040;-80
2024/01/28 07:28:40;;;;;;;7.18;4.28;;;;;;;1.15;100.00;102863.72;5248079;28;20036;-82
2024/01/28 07:31:12;;;;;;;9.40;4.93;;;;;;;1.14;100.00;102863.75;5256587;28;20561;-81
2024/01/28 07:33:44;;;;;;;10.20;4.30;;;;;;;1.19;100.00;102864.53;5253474;28;20057;-81
2024/01/28 07:36:16;;;;;;;9.63;4.70;;;;;;;1.24;100.00;102867.03;5251752;28;20048;-81
2024/01/28 07:38:48;;;;;;;11.75;5.18;;;;;;;1.26;100.00;102862.72;5253778;28;20029;-80
2024/01/28 07:41:20;;;;;;;11.57;4.88;;;;;;;1.28;100.00;102860.97;5251974;28;20052;-80
2024/01/28 07:43:52;;;;;;;11.00;4.40;;;;;;;1.20;100.00;102854.16;5254565;28;20074;-81
2024/01/28 07:46:24;;;;;;;11.25;4.18;;;;;;;1.33;100.00;102852.28;5255362;28;20067;-81
2024/01/28 07:48:56;;;;;;;8.77;4.10;;;;;;;1.35;100.00;102849.69;5253516;28;20024;-80
2024/01/28 07:51:28;;;;;;;9.82;4.25;;;;;;;1.39;100.00;102856.50;5254509;28;20045;-80
2024/01/28 07:54:00;;;;;;;8.23;4.43;;;;;;;1.43;100.00;102864.19;5258344;28;20037;-80
2024/01/28 07:56:33;;;;;;;7.63;3.67;;;;;;;1.45;100.00;102854.69;5267381;28;20370;-80
2024/01/28 07:59:05;;;;;;;6.32;3.53;;;;;;;1.46;100.00;102856.38;5264110;28;20040;-80
2024/01/28 08:01:37;;;;;;;9.25;3.90;;;;;;;1.49;100.00;102854.66;5264154;28;20033;-81
2024/01/28 08:04:09;;;;;;;10.52;4.20;;;;;;;1.50;100.00;102848.59;5269053;28;20020;-81
2024/01/28 08:06:41;;;;;;;11.18;5.53;;;;;;;1.54;100.00;102852.84;5262358;28;20397;-80
2024/01/28 08:09:13;;;;;;;9.45;4.13;;;;;;;1.54;100.00;102851.13;5258544;28;20032;-80
2024/01/28 08:11:44;;;;;;;7.95;4.35;;;;;;;1.58;100.00;102859.66;5257605;28;20037;-80
2024/01/28 08:14:16;;;;;;;8.23;3.78;;;;;;;1.51;100.00;102838.25;5255088;28;20028;-80
2024/01/28 08:16:48;;;;;;;8.93;4.40;;;;;;;1.66;100.00;102850.06;5257999;28;20036;-80
2024/01/28 08:19:20;;;;;;;7.18;3.90;;;;;;;1.61;100.00;102832.06;5253695;28;20086;-80
2024/01/28 08:21:52;;;;;;;9.32;4.55;;;;;;;1.73;100.00;102840.50;5257983;28;20491;-80
2024/01/28 08:24:24;;;;;;;11.43;5.90;;;;;;;1.80;100.00;102835.22;5254464;28;20066;-80
2024/01/28 08:26:56;;;;;;;12.35;4.03;;;;;;;1.77;100.00;102826.66;5255239;28;20032;-80
2024/01/28 08:29:28;;;;;;;9.05;4.05;;;;;;;1.84;100.00;102833.44;5258054;28;20024;-80
2024/01/28 08:32:00;;;;;;;8.88;4.50;;;;;;;1.91;100.00;102833.31;5258745;28;20469;-80
2024/01/28 08:34:32;;;;;;;6.95;3.47;;;;;;;1.94;100.00;102828.09;5256061;28;21074;-79
2024/01/28 08:37:04;;;;;;;8.18;4.30;;;;;;;2.04;100.00;102828.75;5256262;28;20028;-80
2024/01/28 08:39:36;;;;;;;6.32;3.50;;;;;;;2.11;100.00;102819.19;5251884;28;20032;-80
2024/01/28 08:42:08;;;;;;;8.23;4.10;;;;;;;2.17;100.00;102822.50;5254928;28;20039;-80
2024/01/28 08:44:40;;;;;;;11.57;4.50;;;;;;;2.16;100.00;102810.47;5255292;28;20041;-80
2024/01/28 08:47:12;;;;;;;8.95;4.07;;;;;;;2.25;100.00;102821.53;5251763;28;20037;-80
2024/01/28 08:49:44;;;;;;;8.68;4.55;;;;;;;2.28;100.00;102817.16;5258729;28;20163;-80
2024/01/28 08:52:16;;;;;;;9.43;4.70;;;;;;;2.35;100.00;102812.69;5258416;28;20534;-81
2024/01/28 08:54:49;;;;;;;10.02;6.03;;;;;;;2.43;100.00;102813.44;5257597;28;20558;-80
2024/01/28 08:57:21;;;;;;;12.13;6.78;;;;;;;2.53;100.00;102816.66;5253066;28;20028;-80
2024/01/28 08:59:53;;;;;;;14.25;7.00;;;;;;;2.56;100.00;102814.88;5255694;28;20028;-80
2024/01/28 09:02:25;;;;;;;12.95;6.57;;;;;;;2.62;100.00;102817.34;5253312;28;20039;-80
2024/01/28 09:04:57;;;;;;;11.70;6.47;;;;;;;2.62;100.00;102817.34;5254037;28;20548;-80
2024/01/28 09:07:29;;;;;;;10.73;6.85;;;;;;;2.72;100.00;102814.56;5255188;28;20033;-80
2024/01/28 09:10:00;;;;;;;11.30;6.10;;;;;;;2.73;100.00;102800.75;5254159;28;20039;-80
2024/01/28 09:12:33;;;;;;;8.02;5.05;;;;;;;2.77;100.00;102805.84;5253484;28;20548;-80
2024/01/28 09:15:05;;;;;;;6.53;4.75;;;;;;;2.87;100.00;102809.94;5256491;28;20043;-80
2024/01/28 09:17:37;;;;;;;7.73;4.37;;;;;;;2.93;100.00;102814.13;5257267;28;20028;-80
2024/01/28 09:20:09;;;;;;;10.70;4.28;;;;;;;2.93;100.00;102814.13;5262897;28;20035;-80
2024/01/28 09:22:41;;;;;;;8.20;3.53;;;;;;;3.04;100.00;102806.16;5259952;28;20379;-80
2024/01/28 09:25:13;;;;;;;7.45;3.53;;;;;;;3.05;100.00;102808.69;5255861;28;20044;-80
2024/01/28 09:27:48;;;;;;;9.23;3.75;;;;;;;3.03;100.00;102786.28;5254613;28;20025;-80
2024/01/28 09:30:20;;;;;;;7.82;3.67;;;;;;;3.25;100.00;102802.22;5258968;28;20036;-80
2024/01/28 09:32:52;;;;;;;8.20;3.88;;;;;;;3.25;100.00;102786.66;5259455;28;20072;-80
2024/01/28 09:35:24;;;;;;;6.60;3.80;;;;;;;3.34;100.00;102794.25;5261164;28;20066;-80
2024/01/28 09:37:57;;;;;;;7.93;3.67;;;;;;;3.45;100.00;102789.66;5257388;28;20118;-80
2024/01/28 09:40:29;;;;;;;9.05;3.70;;;;;;;3.55;100.00;102790.28;5258639;28;20474;-80
2024/01/28 09:43:23;;;;;;;6.53;3.45;;;;;;;3.68;100.00;102790.84;5257802;28;20144;-80
2024/01/28 09:45:55;;;;;;;9.52;3.78;;;;;;;3.60;100.00;102783.25;5254842;28;20033;-80
2024/01/28 09:48:28;;;;;;;7.75;3.85;;;;;;;3.73;100.00;102789.84;5254621;28;20051;-80
2024/01/28 09:50:59;;;;;;;7.28;3.45;;;;;;;3.72;100.00;102792.47;5254300;28;20057;-80
2024/01/28 09:53:31;;;;;;;6.40;3.80;;;;;;;3.78;100.00;102777.59;5253146;28;20029;-79
2024/01/28 09:56:04;;;;;;;7.05;3.58;;;;;;;3.83;100.00;102787.88;5256957;28;20055;-81
2024/01/28 09:58:39;;;;;;;7.28;4.00;;;;;;;4.02;100.00;102781.31;5260534;28;20029;-80
2024/01/28 10:01:11;;;;;;;6.53;3.70;;;;;;;4.04;100.00;102773.50;5256141;28;20033;-79
2024/01/28 10:03:43;;;;;;;8.25;3.55;;;;;;;4.20;100.00;102779.09;5258486;28;20044;-79
2024/01/28 10:06:15;;;;;;;5.13;2.92;;;;;;;4.29;100.00;102771.09;5255495;28;20042;-79
2024/01/28 10:08:47;;;;;;;8.00;3.55;;;;;;;4.44;100.00;102769.81;5252467;28;20032;-79
2024/01/28 10:11:19;;;;;;;7.72;3.40;;;;;;;4.54;100.00;102759.09;5254877;28;20033;-79
2024/01/28 10:13:51;;;;;;;8.63;3.20;;;;;;;4.62;100.00;102764.94;5254038;28;20082;-79
2024/01/28 10:16:24;;;;;;;6.05;3.30;;;;;;;4.68;100.00;102755.28;5252748;28;20469;-79
2024/01/28 10:18:56;;;;;;;6.10;2.90;;;;;;;4.88;100.00;102756.38;5266204;28;20052;-80
2024/01/28 10:21:28;;;;;;;6.97;2.97;;;;;;;4.99;100.00;102760.38;5259261;28;20416;-80
2024/01/28 10:24:00;;;;;;;6.15;3.17;;;;;;;5.09;100.00;102757.47;5260618;28;20589;-80
2024/01/28 10:26:32;;;;;;;6.65;3.60;;;;;;;5.20;100.00;102764.09;5258866;28;20032;-80
2024/01/28 10:29:08;;;;;;;5.72;3.13;;;;;;;5.25;100.00;102749.19;5259575;28;20029;-80
2024/01/28 10:31:40;;;;;;;4.10;2.40;;;;;;;5.49;100.00;102753.59;5257794;28;20032;-79
2024/01/28 10:34:12;;;;;;;7.53;2.87;;;;;;;5.54;100.00;102754.28;5258076;28;20036;-79
2024/01/28 10:36:47;;;;;;;5.72;2.95;;;;;;;5.70;100.00;102756.38;5256972;28;20028;-80
2024/01/28 10:39:20;;;;;;;7.07;3.25;;;;;;;5.73;100.00;102749.34;5256439;28;20470;-80
2024/01/28 10:41:56;;;;;;;6.75;3.22;;;;;;;5.94;100.00;102749.50;5255825;28;20040;-80
2024/01/28 10:44:31;;;;;;;5.97;2.97;;;;;;;5.95;100.00;102749.47;5259508;28;20032;-80
2024/01/28 10:47:08;;;;;;;5.90;2.97;;;;;;;6.07;100.00;102756.84;5250723;28;20060;-80
2024/01/28 10:49:42;;;;;;;6.60;3.20;;;;;;;6.18;100.00;102761.69;5260239;28;20028;-80
2024/01/28 10:52:15;;;;;;;7.13;2.85;;;;;;;6.26;100.00;102759.66;5258964;28;20048;-80
2024/01/28 10:54:49;;;;;;;8.40;3.75;;;;;;;6.39;100.00;102743.56;5247208;28;20036;-80
2024/01/28 10:57:21;;;;;;;;;;;;;;;6.85;100.00;102740.06;5256443;28;20111;-80
2024/01/28 10:59:54;;;;;;;4.53;2.17;;;;;;;6.60;100.00;102732.38;5254285;28;19920;-80
2024/01/28 11:02:27;;;;;;;5.88;3.05;;;;;;;6.68;100.00;102729.47;5256263;28;20033;-79
2024/01/28 11:04:59;;;;;;;;;;;;;;;7.15;100.00;102726.75;5254289;28;21238;-80
2024/01/28 11:07:31;;;;;;;7.22;3.25;;;;;;;6.83;100.00;102718.47;5259357;28;19944;-80
2024/01/28 11:10:05;;;;;;;7.85;3.13;;;;;;;6.94;100.00;102713.69;5256863;28;20032;-80
2024/01/28 11:12:37;;;;;;;6.20;3.30;;;;;;;7.04;100.00;102707.16;5260229;28;20037;-80
2024/01/28 11:15:13;;;;;;;6.95;2.72;;;;;;;7.14;100.00;102704.22;5257977;28;20049;-80
2024/01/28 11:17:45;;;;;;;8.18;2.78;;;;;;;7.16;100.00;102699.75;5255851;28;20029;-80
2024/01/28 11:20:23;;;;;;;5.07;2.88;;;;;;;7.37;100.00;102698.91;5258916;28;20043;-80
2024/01/28 11:22:56;;;;;;;7.03;2.80;;;;;;;7.42;100.00;102691.72;5260371;28;20037;-80
2024/01/28 11:25:29;;;;;;;4.60;2.78;;;;;;;7.54;100.00;102693.00;5257839;28;20052;-80
2024/01/28 11:28:05;;;;;;;6.13;3.45;;;;;;;7.67;100.00;102693.31;5255134;28;20029;-80
2024/01/28 11:30:38;;;;;;;8.48;3.35;;;;;;;7.74;100.00;102685.13;5262694;28;20033;-81
2024/01/28 11:33:11;;;;;;;;;;;;;;;8.25;100.00;102673.28;5260807;28;20036;-80
2024/01/28 11:35:44;;;;;;;5.15;2.90;;;;;;;7.94;100.00;102668.59;5257804;28;19948;-80
2024/01/28 11:38:21;;;;;;;5.65;2.88;;;;;;;8.05;100.00;102666.34;5262679;28;20028;-81
2024/01/28 11:40:59;;;;;;;7.43;2.72;;;;;;;8.24;100.00;102660.31;5259312;28;20044;-82
2024/01/28 11:43:31;;;;;;;7.25;3.47;;;;;;;8.23;100.00;102658.63;5257590;28;20056;-82
2024/01/28 11:46:03;;;;;;;5.97;3.08;;;;;;;8.26;100.00;102638.44;5256301;28;20522;-81